sensor_id;sensor_type;location;lat;lon;timestamp;pressure;altitude;pressure_sealevel;temperature;humidity
55517;BME280;41724;51.176;-0.708;2023-03-18T00:01:49;100015.03;;;14.85;62.31
55517;BME280;41724;51.176;-0.708;2023-03-18T00:04:16;100011.43;;;14.96;62.38
55517;BME280;41724;51.176;-0.708;2023-03-18T00:06:43;100009.55;;;14.97;62.39
55517;BME280;41724;51.176;-0.708;2023-03-18T00:09:09;100008.86;;;14.98;62.69
55517;BME280;41724;51.176;-0.708;2023-03-18T00:11:36;100010.74;;;14.96;62.24
55517;BME280;41724;51.176;-0.708;2023-03-18T00:14:03;100007.89;;;15.10;62.37
55517;BME280;41724;51.176;-0.708;2023-03-18T00:16:30;100008.14;;;15.01;62.42
55517;BME280;41724;51.176;-0.708;2023-03-18T00:18:57;100009.08;;;15.08;62.06
55517;BME280;41724;51.176;-0.708;2023-03-18T00:21:24;100010.82;;;15.08;61.92
55517;BME280;41724;51.176;-0.708;2023-03-18T00:23:51;100007.92;;;14.86;62.71
55517;BME280;41724;51.176;-0.708;2023-03-18T00:26:18;100006.83;;;14.93;63.34
55517;BME280;41724;51.176;-0.708;2023-03-18T00:28:45;100007.45;;;14.76;63.18
55517;BME280;41724;51.176;-0.708;2023-03-18T00:31:12;100005.43;;;15.03;62.35
55517;BME280;41724;51.176;-0.708;2023-03-18T00:33:40;100007.69;;;15.05;62.41
55517;BME280;41724;51.176;-0.708;2023-03-18T00:36:08;100007.21;;;15.02;62.16
55517;BME280;41724;51.176;-0.708;2023-03-18T00:38:36;100005.20;;;14.93;62.71
55517;BME280;41724;51.176;-0.708;2023-03-18T00:41:04;100003.03;;;15.22;62.55
55517;BME280;41724;51.176;-0.708;2023-03-18T00:43:31;100005.00;;;15.01;62.32
55517;BME280;41724;51.176;-0.708;2023-03-18T00:45:58;100005.27;;;14.80;61.95
55517;BME280;41724;51.176;-0.708;2023-03-18T00:48:26;100005.04;;;14.82;62.41
55517;BME280;41724;51.176;-0.708;2023-03-18T00:50:53;100000.66;;;14.88;62.25
55517;BME280;41724;51.176;-0.708;2023-03-18T00:53:21;100000.40;;;14.81;62.67
55517;BME280;41724;51.176;-0.708;2023-03-18T00:55:48;99998.39;;;14.70;63.07
55517;BME280;41724;51.176;-0.708;2023-03-18T00:58:14;100001.09;;;14.49;63.27
55517;BME280;41724;51.176;-0.708;2023-03-18T01:00:41;99998.46;;;14.59;63.14
55517;BME280;41724;51.176;-0.708;2023-03-18T01:03:08;99994.31;;;14.74;63.41
55517;BME280;41724;51.176;-0.708;2023-03-18T01:05:35;99996.29;;;14.82;62.76
55517;BME280;41724;51.176;-0.708;2023-03-18T01:08:03;100000.42;;;14.68;62.77
55517;BME280;41724;51.176;-0.708;2023-03-18T01:10:31;100001.79;;;14.69;63.02
55517;BME280;41724;51.176;-0.708;2023-03-18T01:12:58;100002.50;;;14.96;62.39
55517;BME280;41724;51.176;-0.708;2023-03-18T01:15:25;99996.34;;;14.87;63.21
55517;BME280;41724;51.176;-0.708;2023-03-18T01:17:53;99999.98;;;14.80;62.96
55517;BME280;41724;51.176;-0.708;2023-03-18T01:20:20;99992.03;;;14.74;62.31
55517;BME280;41724;51.176;-0.708;2023-03-18T01:22:47;99988.02;;;14.14;63.65
55517;BME280;41724;51.176;-0.708;2023-03-18T01:25:15;99986.56;;;14.64;63.94
55517;BME280;41724;51.176;-0.708;2023-03-18T01:27:42;99986.42;;;13.86;65.19
55517;BME280;41724;51.176;-0.708;2023-03-18T01:30:11;99991.43;;;14.12;65.00
55517;BME280;41724;51.176;-0.708;2023-03-18T01:32:39;99987.16;;;13.99;65.44
55517;BME280;41724;51.176;-0.708;2023-03-18T01:35:06;99987.77;;;14.14;65.80
55517;BME280;41724;51.176;-0.708;2023-03-18T01:37:33;99986.32;;;14.38;64.55
55517;BME280;41724;51.176;-0.708;2023-03-18T01:40:00;99984.72;;;13.91;65.09
55517;BME280;41724;51.176;-0.708;2023-03-18T01:42:28;99981.40;;;14.35;64.44
55517;BME280;41724;51.176;-0.708;2023-03-18T01:45:14;99979.54;;;14.37;64.64
55517;BME280;41724;51.176;-0.708;2023-03-18T01:47:43;99979.23;;;14.40;64.54
55517;BME280;41724;51.176;-0.708;2023-03-18T01:50:11;99975.10;;;14.56;64.06
55517;BME280;41724;51.176;-0.708;2023-03-18T01:52:41;99974.95;;;14.72;64.41
55517;BME280;41724;51.176;-0.708;2023-03-18T01:55:12;99972.03;;;14.66;63.81
55517;BME280;41724;51.176;-0.708;2023-03-18T01:57:42;99974.63;;;14.96;63.70
55517;BME280;41724;51.176;-0.708;2023-03-18T02:00:11;99980.14;;;14.88;62.87
55517;BME280;41724;51.176;-0.708;2023-03-18T02:02:40;99976.34;;;14.58;63.87
55517;BME280;41724;51.176;-0.708;2023-03-18T02:05:10;99970.77;;;14.46;63.48
55517;BME280;41724;51.176;-0.708;2023-03-18T02:07:41;99966.48;;;14.39;64.18
55517;BME280;41724;51.176;-0.708;2023-03-18T02:10:17;99968.88;;;14.93;63.67
55517;BME280;41724;51.176;-0.708;2023-03-18T02:12:52;99963.60;;;14.47;63.66
55517;BME280;41724;51.176;-0.708;2023-03-18T02:15:23;99960.97;;;14.45;64.18
55517;BME280;41724;51.176;-0.708;2023-03-18T02:17:55;99958.85;;;14.88;64.09
55517;BME280;41724;51.176;-0.708;2023-03-18T02:20:37;99958.03;;;14.60;63.77
55517;BME280;41724;51.176;-0.708;2023-03-18T02:23:14;99960.36;;;14.30;63.26
55517;BME280;41724;51.176;-0.708;2023-03-18T02:25:49;99963.33;;;15.01;63.30
55517;BME280;41724;51.176;-0.708;2023-03-18T02:28:24;99963.79;;;14.86;62.78
55517;BME280;41724;51.176;-0.708;2023-03-18T02:30:55;99961.62;;;15.10;62.86
55517;BME280;41724;51.176;-0.708;2023-03-18T02:33:25;99962.73;;;14.65;62.94
55517;BME280;41724;51.176;-0.708;2023-03-18T02:36:00;99959.02;;;14.00;65.02
55517;BME280;41724;51.176;-0.708;2023-03-18T02:38:28;99958.29;;;13.81;66.29
55517;BME280;41724;51.176;-0.708;2023-03-18T02:40:54;99961.05;;;14.03;66.00
55517;BME280;41724;51.176;-0.708;2023-03-18T02:43:24;99961.39;;;14.19;65.03
55517;BME280;41724;51.176;-0.708;2023-03-18T02:46:05;99966.20;;;13.74;65.40
55517;BME280;41724;51.176;-0.708;2023-03-18T02:48:40;99966.43;;;14.22;65.57
55517;BME280;41724;51.176;-0.708;2023-03-18T02:51:08;99963.62;;;14.34;64.91
55517;BME280;41724;51.176;-0.708;2023-03-18T02:53:36;99964.06;;;14.70;63.89
55517;BME280;41724;51.176;-0.708;2023-03-18T02:56:05;99967.77;;;14.53;63.41
55517;BME280;41724;51.176;-0.708;2023-03-18T02:58:33;99969.13;;;14.11;64.36
55517;BME280;41724;51.176;-0.708;2023-03-18T03:01:00;99965.49;;;14.40;63.68
55517;BME280;41724;51.176;-0.708;2023-03-18T03:03:28;99966.89;;;14.75;63.33
55517;BME280;41724;51.176;-0.708;2023-03-18T03:05:55;99965.48;;;14.58;63.83
55517;BME280;41724;51.176;-0.708;2023-03-18T03:08:22;99963.27;;;14.33;64.44
55517;BME280;41724;51.176;-0.708;2023-03-18T03:10:50;99965.28;;;14.31;64.96
55517;BME280;41724;51.176;-0.708;2023-03-18T03:13:18;99962.75;;;14.65;64.21
55517;BME280;41724;51.176;-0.708;2023-03-18T03:15:45;99963.42;;;14.37;65.10
55517;BME280;41724;51.176;-0.708;2023-03-18T03:18:12;99963.50;;;14.42;64.62
55517;BME280;41724;51.176;-0.708;2023-03-18T03:20:39;99965.80;;;14.48;63.97
55517;BME280;41724;51.176;-0.708;2023-03-18T03:23:08;99968.58;;;14.24;64.36
55517;BME280;41724;51.176;-0.708;2023-03-18T03:25:35;99966.57;;;14.32;64.41
55517;BME280;41724;51.176;-0.708;2023-03-18T03:28:04;99966.27;;;14.65;63.72
55517;BME280;41724;51.176;-0.708;2023-03-18T03:30:32;99970.38;;;14.29;64.97
55517;BME280;41724;51.176;-0.708;2023-03-18T03:33:00;99970.03;;;13.61;65.92
55517;BME280;41724;51.176;-0.708;2023-03-18T03:35:27;99970.45;;;14.12;65.72
55517;BME280;41724;51.176;-0.708;2023-03-18T03:37:55;99970.20;;;14.67;65.07
55517;BME280;41724;51.176;-0.708;2023-03-18T03:40:22;99968.27;;;14.35;65.26
55517;BME280;41724;51.176;-0.708;2023-03-18T03:42:50;99968.17;;;14.45;64.44
55517;BME280;41724;51.176;-0.708;2023-03-18T03:45:18;99967.59;;;14.07;64.53
55517;BME280;41724;51.176;-0.708;2023-03-18T03:47:47;99973.06;;;13.80;66.07
55517;BME280;41724;51.176;-0.708;2023-03-18T03:50:16;99976.73;;;14.23;64.79
55517;BME280;41724;51.176;-0.708;2023-03-18T03:52:43;99983.54;;;13.84;65.02
55517;BME280;41724;51.176;-0.708;2023-03-18T03:55:15;99984.42;;;13.94;64.87
55517;BME280;41724;51.176;-0.708;2023-03-18T03:57:46;99983.63;;;14.24;63.95
55517;BME280;41724;51.176;-0.708;2023-03-18T04:00:16;99987.28;;;14.70;63.91
55517;BME280;41724;51.176;-0.708;2023-03-18T04:02:45;99987.00;;;14.63;63.80
55517;BME280;41724;51.176;-0.708;2023-03-18T04:05:15;99985.45;;;14.62;63.98
55517;BME280;41724;51.176;-0.708;2023-03-18T04:07:44;99985.67;;;14.64;63.20
55517;BME280;41724;51.176;-0.708;2023-03-18T04:10:12;99989.23;;;14.30;63.40
55517;BME280;41724;51.176;-0.708;2023-03-18T04:12:40;99989.50;;;14.62;62.54
55517;BME280;41724;51.176;-0.708;2023-03-18T04:15:08;99994.07;;;15.05;62.09
55517;BME280;41724;51.176;-0.708;2023-03-18T04:17:36;99991.97;;;14.86;62.26
55517;BME280;41724;51.176;-0.708;2023-03-18T04:20:03;99991.76;;;14.61;62.46
55517;BME280;41724;51.176;-0.708;2023-03-18T04:22:31;99991.89;;;14.76;62.25
55517;BME280;41724;51.176;-0.708;2023-03-18T04:24:58;99986.93;;;14.69;62.42
55517;BME280;41724;51.176;-0.708;2023-03-18T04:27:25;99982.71;;;14.46;62.29
55517;BME280;41724;51.176;-0.708;2023-03-18T04:29:53;99982.44;;;14.42;63.35
55517;BME280;41724;51.176;-0.708;2023-03-18T04:32:20;99981.44;;;14.87;63.10
55517;BME280;41724;51.176;-0.708;2023-03-18T04:34:47;99979.56;;;14.12;63.51
55517;BME280;41724;51.176;-0.708;2023-03-18T04:37:14;99976.02;;;14.20;64.84
55517;BME280;41724;51.176;-0.708;2023-03-18T04:39:42;99975.83;;;14.11;65.18
55517;BME280;41724;51.176;-0.708;2023-03-18T04:42:09;99976.51;;;14.43;64.11
55517;BME280;41724;51.176;-0.708;2023-03-18T04:44:36;99979.98;;;14.58;63.26
55517;BME280;41724;51.176;-0.708;2023-03-18T04:47:04;99978.95;;;14.66;63.03
55517;BME280;41724;51.176;-0.708;2023-03-18T04:49:31;99982.77;;;14.52;63.10
55517;BME280;41724;51.176;-0.708;2023-03-18T04:51:58;99984.46;;;14.74;62.90
55517;BME280;41724;51.176;-0.708;2023-03-18T04:54:25;99983.95;;;14.58;63.00
55517;BME280;41724;51.176;-0.708;2023-03-18T04:56:52;99978.06;;;14.73;63.12
55517;BME280;41724;51.176;-0.708;2023-03-18T04:59:19;99982.33;;;15.03;62.43
55517;BME280;41724;51.176;-0.708;2023-03-18T05:01:46;99981.17;;;14.85;62.01
55517;BME280;41724;51.176;-0.708;2023-03-18T05:04:14;99983.61;;;14.82;62.05
55517;BME280;41724;51.176;-0.708;2023-03-18T05:06:41;99983.93;;;14.89;61.74
55517;BME280;41724;51.176;-0.708;2023-03-18T05:09:08;99982.83;;;15.17;61.79
55517;BME280;41724;51.176;-0.708;2023-03-18T05:11:36;99977.17;;;15.33;61.50
55517;BME280;41724;51.176;-0.708;2023-03-18T05:14:03;99977.83;;;14.49;61.96
55517;BME280;41724;51.176;-0.708;2023-03-18T05:16:30;99978.06;;;15.16;61.31
55517;BME280;41724;51.176;-0.708;2023-03-18T05:18:57;99981.37;;;14.26;62.63
55517;BME280;41724;51.176;-0.708;2023-03-18T05:21:24;99976.34;;;14.08;62.84
55517;BME280;41724;51.176;-0.708;2023-03-18T05:23:51;99974.49;;;14.66;62.85
55517;BME280;41724;51.176;-0.708;2023-03-18T05:26:18;99968.53;;;14.61;62.30
55517;BME280;41724;51.176;-0.708;2023-03-18T05:28:44;99965.82;;;14.76;62.29
55517;BME280;41724;51.176;-0.708;2023-03-18T05:31:11;99967.13;;;14.59;62.30
55517;BME280;41724;51.176;-0.708;2023-03-18T05:33:38;99965.44;;;14.66;63.00
55517;BME280;41724;51.176;-0.708;2023-03-18T05:36:06;99962.05;;;14.67;62.59
55517;BME280;41724;51.176;-0.708;2023-03-18T05:38:33;99961.85;;;14.72;62.39
55517;BME280;41724;51.176;-0.708;2023-03-18T05:41:00;99958.07;;;14.38;62.44
55517;BME280;41724;51.176;-0.708;2023-03-18T05:43:27;99958.12;;;14.37;63.49
55517;BME280;41724;51.176;-0.708;2023-03-18T05:45:54;99960.31;;;14.07;65.15
55517;BME280;41724;51.176;-0.708;2023-03-18T05:48:21;99961.73;;;14.15;64.19
55517;BME280;41724;51.176;-0.708;2023-03-18T05:50:48;99962.81;;;14.11;63.72
55517;BME280;41724;51.176;-0.708;2023-03-18T05:53:15;99963.41;;;14.26;63.30
55517;BME280;41724;51.176;-0.708;2023-03-18T05:55:42;99961.66;;;14.57;63.46
55517;BME280;41724;51.176;-0.708;2023-03-18T05:58:10;99958.30;;;14.42;63.50
55517;BME280;41724;51.176;-0.708;2023-03-18T06:00:37;99962.11;;;14.35;62.36
55517;BME280;41724;51.176;-0.708;2023-03-18T06:03:05;99965.42;;;14.52;62.37
55517;BME280;41724;51.176;-0.708;2023-03-18T06:05:32;99967.96;;;14.81;62.93
55517;BME280;41724;51.176;-0.708;2023-03-18T06:08:00;99967.12;;;14.90;63.27
55517;BME280;41724;51.176;-0.708;2023-03-18T06:10:26;99968.61;;;14.82;61.98
55517;BME280;41724;51.176;-0.708;2023-03-18T06:12:53;99975.14;;;14.66;62.21
55517;BME280;41724;51.176;-0.708;2023-03-18T06:15:21;99975.87;;;14.76;61.91
55517;BME280;41724;51.176;-0.708;2023-03-18T06:17:49;99973.87;;;14.89;61.72
55517;BME280;41724;51.176;-0.708;2023-03-18T06:20:16;99974.87;;;14.74;61.65
55517;BME280;41724;51.176;-0.708;2023-03-18T06:22:43;99971.20;;;14.76;61.58
55517;BME280;41724;51.176;-0.708;2023-03-18T06:25:11;99972.97;;;14.85;61.89
55517;BME280;41724;51.176;-0.708;2023-03-18T06:27:38;99974.82;;;14.64;61.97
55517;BME280;41724;51.176;-0.708;2023-03-18T06:30:06;99974.12;;;14.54;62.51
55517;BME280;41724;51.176;-0.708;2023-03-18T06:32:33;99974.08;;;14.74;62.31
55517;BME280;41724;51.176;-0.708;2023-03-18T06:35:00;99976.59;;;14.61;62.12
55517;BME280;41724;51.176;-0.708;2023-03-18T06:37:27;99978.12;;;14.55;62.30
55517;BME280;41724;51.176;-0.708;2023-03-18T06:39:56;99977.51;;;14.68;61.73
55517;BME280;41724;51.176;-0.708;2023-03-18T06:42:23;99983.28;;;14.79;61.45
55517;BME280;41724;51.176;-0.708;2023-03-18T06:44:50;99981.75;;;15.35;61.71
55517;BME280;41724;51.176;-0.708;2023-03-18T06:47:17;99982.51;;;14.90;61.69
55517;BME280;41724;51.176;-0.708;2023-03-18T06:49:46;99981.38;;;14.88;60.64
55517;BME280;41724;51.176;-0.708;2023-03-18T06:52:14;99981.00;;;15.04;61.38
55517;BME280;41724;51.176;-0.708;2023-03-18T06:54:41;99980.66;;;14.85;62.46
55517;BME280;41724;51.176;-0.708;2023-03-18T06:57:08;99981.14;;;14.82;61.74
55517;BME280;41724;51.176;-0.708;2023-03-18T06:59:35;99981.50;;;14.77;61.37
55517;BME280;41724;51.176;-0.708;2023-03-18T07:02:02;99982.62;;;14.56;62.53
55517;BME280;41724;51.176;-0.708;2023-03-18T07:04:29;99984.07;;;14.76;62.24
55517;BME280;41724;51.176;-0.708;2023-03-18T07:06:56;99982.53;;;14.68;62.15
55517;BME280;41724;51.176;-0.708;2023-03-18T07:09:24;99988.12;;;14.67;62.17
55517;BME280;41724;51.176;-0.708;2023-03-18T07:11:51;99992.18;;;14.65;62.57
55517;BME280;41724;51.176;-0.708;2023-03-18T07:14:18;99992.17;;;14.86;62.09
55517;BME280;41724;51.176;-0.708;2023-03-18T07:16:45;99996.62;;;14.22;64.42
55517;BME280;41724;51.176;-0.708;2023-03-18T07:19:11;99999.02;;;14.38;63.39
55517;BME280;41724;51.176;-0.708;2023-03-18T07:21:39;100000.81;;;14.40;63.00
55517;BME280;41724;51.176;-0.708;2023-03-18T07:24:06;100000.36;;;14.74;64.05
55517;BME280;41724;51.176;-0.708;2023-03-18T07:26:34;100000.37;;;14.59;63.19
55517;BME280;41724;51.176;-0.708;2023-03-18T07:29:00;100002.10;;;14.60;63.24
55517;BME280;41724;51.176;-0.708;2023-03-18T07:31:27;100004.23;;;14.36;63.74
55517;BME280;41724;51.176;-0.708;2023-03-18T07:33:54;100003.82;;;14.69;64.11
55517;BME280;41724;51.176;-0.708;2023-03-18T07:36:21;100006.06;;;14.27;64.97
55517;BME280;41724;51.176;-0.708;2023-03-18T07:38:48;100005.90;;;14.46;63.83
55517;BME280;41724;51.176;-0.708;2023-03-18T07:41:15;100011.80;;;14.40;64.78
55517;BME280;41724;51.176;-0.708;2023-03-18T07:43:42;100015.15;;;14.12;64.85
55517;BME280;41724;51.176;-0.708;2023-03-18T07:46:09;100013.41;;;14.60;63.87
55517;BME280;41724;51.176;-0.708;2023-03-18T07:48:36;100015.34;;;14.61;64.00
55517;BME280;41724;51.176;-0.708;2023-03-18T07:51:04;100017.27;;;14.15;64.54
55517;BME280;41724;51.176;-0.708;2023-03-18T07:53:32;100015.00;;;14.60;65.32
55517;BME280;41724;51.176;-0.708;2023-03-18T07:55:59;100016.23;;;14.19;64.93
55517;BME280;41724;51.176;-0.708;2023-03-18T07:58:26;100016.85;;;14.33;63.97
55517;BME280;41724;51.176;-0.708;2023-03-18T08:00:53;100016.65;;;14.44;64.73
55517;BME280;41724;51.176;-0.708;2023-03-18T08:03:20;100019.02;;;14.21;63.68
55517;BME280;41724;51.176;-0.708;2023-03-18T08:05:47;100023.87;;;14.11;64.64
55517;BME280;41724;51.176;-0.708;2023-03-18T08:08:14;100024.93;;;14.33;64.00
55517;BME280;41724;51.176;-0.708;2023-03-18T08:10:41;100027.37;;;14.17;64.65
55517;BME280;41724;51.176;-0.708;2023-03-18T08:13:08;100024.34;;;14.42;64.82
55517;BME280;41724;51.176;-0.708;2023-03-18T08:15:35;100026.29;;;14.37;64.85
55517;BME280;41724;51.176;-0.708;2023-03-18T08:18:02;100025.68;;;14.61;64.64
55517;BME280;41724;51.176;-0.708;2023-03-18T08:20:29;100028.24;;;14.61;63.96
55517;BME280;41724;51.176;-0.708;2023-03-18T08:22:56;100026.02;;;14.57;62.95
55517;BME280;41724;51.176;-0.708;2023-03-18T08:25:24;100022.68;;;14.51;64.05
55517;BME280;41724;51.176;-0.708;2023-03-18T08:27:51;100025.28;;;14.81;64.14
55517;BME280;41724;51.176;-0.708;2023-03-18T08:30:19;100030.09;;;15.08;63.35
55517;BME280;41724;51.176;-0.708;2023-03-18T08:32:45;100031.03;;;14.76;63.76
55517;BME280;41724;51.176;-0.708;2023-03-18T08:35:12;100031.28;;;14.98;63.47
55517;BME280;41724;51.176;-0.708;2023-03-18T08:37:40;100034.85;;;15.11;63.22
55517;BME280;41724;51.176;-0.708;2023-03-18T08:40:08;100032.01;;;14.62;64.05
55517;BME280;41724;51.176;-0.708;2023-03-18T08:42:36;100036.22;;;15.25;62.91
55517;BME280;41724;51.176;-0.708;2023-03-18T08:45:04;100037.47;;;15.47;62.76
55517;BME280;41724;51.176;-0.708;2023-03-18T08:47:31;100041.15;;;15.58;62.92
55517;BME280;41724;51.176;-0.708;2023-03-18T08:49:58;100037.15;;;15.71;62.22
55517;BME280;41724;51.176;-0.708;2023-03-18T08:52:25;100042.51;;;15.93;62.00
55517;BME280;41724;51.176;-0.708;2023-03-18T08:54:52;100043.97;;;16.16;62.90
55517;BME280;41724;51.176;-0.708;2023-03-18T08:57:19;100049.88;;;15.41;63.19
55517;BME280;41724;51.176;-0.708;2023-03-18T08:59:46;100045.99;;;15.22;63.71
55517;BME280;41724;51.176;-0.708;2023-03-18T09:02:14;100041.26;;;15.25;64.09
55517;BME280;41724;51.176;-0.708;2023-03-18T09:04:41;100038.21;;;15.67;63.06
55517;BME280;41724;51.176;-0.708;2023-03-18T09:07:08;100037.54;;;15.05;62.85
55517;BME280;41724;51.176;-0.708;2023-03-18T09:09:36;100035.52;;;15.64;63.70
55517;BME280;41724;51.176;-0.708;2023-03-18T09:12:03;100035.93;;;15.39;62.23
55517;BME280;41724;51.176;-0.708;2023-03-18T09:14:30;100039.13;;;15.55;63.20
55517;BME280;41724;51.176;-0.708;2023-03-18T09:16:57;100035.75;;;15.50;63.16
55517;BME280;41724;51.176;-0.708;2023-03-18T09:19:24;100034.06;;;15.80;61.98
55517;BME280;41724;51.176;-0.708;2023-03-18T09:21:53;100033.76;;;15.80;62.97
55517;BME280;41724;51.176;-0.708;2023-03-18T09:24:20;100031.60;;;15.61;62.44
55517;BME280;41724;51.176;-0.708;2023-03-18T09:26:47;100035.57;;;14.96;64.03
55517;BME280;41724;51.176;-0.708;2023-03-18T09:29:14;100038.65;;;15.87;62.39
55517;BME280;41724;51.176;-0.708;2023-03-18T09:31:41;100039.91;;;14.85;65.53
55517;BME280;41724;51.176;-0.708;2023-03-18T09:34:08;100039.33;;;15.14;64.24
55517;BME280;41724;51.176;-0.708;2023-03-18T09:36:35;100036.23;;;15.68;62.76
55517;BME280;41724;51.176;-0.708;2023-03-18T09:39:02;100033.42;;;15.84;62.59
55517;BME280;41724;51.176;-0.708;2023-03-18T09:41:42;100033.17;;;15.45;62.83
55517;BME280;41724;51.176;-0.708;2023-03-18T09:44:16;100030.13;;;16.35;61.58
55517;BME280;41724;51.176;-0.708;2023-03-18T09:46:58;100036.35;;;16.24;62.30
55517;BME280;41724;51.176;-0.708;2023-03-18T09:49:37;100032.18;;;16.10;61.57
55517;BME280;41724;51.176;-0.708;2023-03-18T09:52:16;100032.53;;;15.81;61.74
55517;BME280;41724;51.176;-0.708;2023-03-18T09:54:52;100031.06;;;16.28;61.82
55517;BME280;41724;51.176;-0.708;2023-03-18T09:57:24;100033.91;;;16.04;61.22
55517;BME280;41724;51.176;-0.708;2023-03-18T09:59:58;100038.42;;;16.51;61.03
55517;BME280;41724;51.176;-0.708;2023-03-18T10:02:29;100043.85;;;15.87;61.31
55517;BME280;41724;51.176;-0.708;2023-03-18T10:04:59;100043.67;;;16.28;61.23
55517;BME280;41724;51.176;-0.708;2023-03-18T10:07:31;100048.45;;;15.73;61.44
55517;BME280;41724;51.176;-0.708;2023-03-18T10:10:06;100055.79;;;16.21;60.93
55517;BME280;41724;51.176;-0.708;2023-03-18T10:12:36;100058.33;;;16.47;60.33
55517;BME280;41724;51.176;-0.708;2023-03-18T10:15:12;100058.02;;;16.62;58.90
55517;BME280;41724;51.176;-0.708;2023-03-18T10:17:47;100058.85;;;16.83;59.39
55517;BME280;41724;51.176;-0.708;2023-03-18T10:20:19;100063.72;;;16.22;60.24
55517;BME280;41724;51.176;-0.708;2023-03-18T10:22:59;100060.10;;;16.47;60.80
55517;BME280;41724;51.176;-0.708;2023-03-18T10:25:34;100067.10;;;16.06;60.23
55517;BME280;41724;51.176;-0.708;2023-03-18T10:28:20;100072.85;;;15.56;61.82
55517;BME280;41724;51.176;-0.708;2023-03-18T10:31:00;100069.44;;;16.73;60.71
55517;BME280;41724;51.176;-0.708;2023-03-18T10:33:35;100070.89;;;17.33;58.61
55517;BME280;41724;51.176;-0.708;2023-03-18T10:36:11;100076.03;;;17.87;59.03
55517;BME280;41724;51.176;-0.708;2023-03-18T10:38:43;100075.16;;;16.87;60.35
55517;BME280;41724;51.176;-0.708;2023-03-18T10:41:16;100080.69;;;16.98;59.68
55517;BME280;41724;51.176;-0.708;2023-03-18T10:43:45;100077.19;;;16.74;60.34
55517;BME280;41724;51.176;-0.708;2023-03-18T10:46:15;100079.00;;;16.80;59.85
55517;BME280;41724;51.176;-0.708;2023-03-18T10:48:46;100084.94;;;16.49;56.18
55517;BME280;41724;51.176;-0.708;2023-03-18T10:51:18;100085.56;;;17.23;54.76
55517;BME280;41724;51.176;-0.708;2023-03-18T10:53:54;100085.74;;;16.07;57.44
55517;BME280;41724;51.176;-0.708;2023-03-18T10:56:24;100082.31;;;16.85;57.00
55517;BME280;41724;51.176;-0.708;2023-03-18T10:58:51;100078.75;;;17.35;56.72
55517;BME280;41724;51.176;-0.708;2023-03-18T11:01:20;100077.97;;;17.38;55.35
55517;BME280;41724;51.176;-0.708;2023-03-18T11:03:51;100079.88;;;16.96;55.88
55517;BME280;41724;51.176;-0.708;2023-03-18T11:06:23;100081.68;;;16.17;55.44
55517;BME280;41724;51.176;-0.708;2023-03-18T11:09:02;100082.31;;;16.91;54.94
55517;BME280;41724;51.176;-0.708;2023-03-18T11:11:32;100080.30;;;16.83;56.13
55517;BME280;41724;51.176;-0.708;2023-03-18T11:14:02;100079.73;;;17.38;54.36
55517;BME280;41724;51.176;-0.708;2023-03-18T11:16:36;100081.72;;;17.23;56.09
55517;BME280;41724;51.176;-0.708;2023-03-18T11:19:19;100083.28;;;17.06;57.84
55517;BME280;41724;51.176;-0.708;2023-03-18T11:21:59;100088.95;;;15.95;58.87
55517;BME280;41724;51.176;-0.708;2023-03-18T11:24:27;100091.17;;;15.86;59.31
55517;BME280;41724;51.176;-0.708;2023-03-18T11:26:56;100094.05;;;14.63;64.40
55517;BME280;41724;51.176;-0.708;2023-03-18T11:29:25;100098.98;;;14.36;61.15
55517;BME280;41724;51.176;-0.708;2023-03-18T11:31:54;100100.84;;;14.80;62.23
55517;BME280;41724;51.176;-0.708;2023-03-18T11:34:22;100096.29;;;15.10;61.53
55517;BME280;41724;51.176;-0.708;2023-03-18T11:36:55;100098.90;;;15.51;62.05
55517;BME280;41724;51.176;-0.708;2023-03-18T11:39:23;100102.01;;;15.31;61.29
55517;BME280;41724;51.176;-0.708;2023-03-18T11:41:51;100100.72;;;15.04;63.72
55517;BME280;41724;51.176;-0.708;2023-03-18T11:44:26;100101.46;;;14.60;64.19
55517;BME280;41724;51.176;-0.708;2023-03-18T11:46:57;100102.54;;;15.26;64.24
55517;BME280;41724;51.176;-0.708;2023-03-18T11:49:27;100104.09;;;15.64;60.95
55517;BME280;41724;51.176;-0.708;2023-03-18T11:52:09;100104.48;;;15.98;59.65
55517;BME280;41724;51.176;-0.708;2023-03-18T11:55:08;100103.32;;;16.53;58.96
55517;BME280;41724;51.176;-0.708;2023-03-18T11:57:52;100104.74;;;17.16;58.69
55517;BME280;41724;51.176;-0.708;2023-03-18T12:00:31;100101.75;;;17.73;58.47
55517;BME280;41724;51.176;-0.708;2023-03-18T12:03:20;100102.21;;;17.89;61.08
55517;BME280;41724;51.176;-0.708;2023-03-18T12:06:03;100098.99;;;18.00;56.89
55517;BME280;41724;51.176;-0.708;2023-03-18T12:08:41;100104.58;;;17.74;56.03
55517;BME280;41724;51.176;-0.708;2023-03-18T12:11:14;100108.73;;;17.51;56.28
55517;BME280;41724;51.176;-0.708;2023-03-18T12:13:54;100105.81;;;17.79;53.08
55517;BME280;41724;51.176;-0.708;2023-03-18T12:16:37;100104.07;;;18.30;53.99
55517;BME280;41724;51.176;-0.708;2023-03-18T12:19:31;100113.15;;;16.78;55.86
55517;BME280;41724;51.176;-0.708;2023-03-18T12:22:25;100115.67;;;17.42;54.99
55517;BME280;41724;51.176;-0.708;2023-03-18T12:25:15;100115.80;;;17.39;55.36
55517;BME280;41724;51.176;-0.708;2023-03-18T12:27:52;100115.83;;;17.39;53.65
55517;BME280;41724;51.176;-0.708;2023-03-18T12:30:42;100115.82;;;17.54;55.12
55517;BME280;41724;51.176;-0.708;2023-03-18T12:33:25;100119.58;;;16.89;54.72
55517;BME280;41724;51.176;-0.708;2023-03-18T12:36:03;100115.64;;;17.22;55.66
55517;BME280;41724;51.176;-0.708;2023-03-18T12:38:54;100120.27;;;17.00;52.01
55517;BME280;41724;51.176;-0.708;2023-03-18T12:41:28;100121.89;;;16.22;55.55
55517;BME280;41724;51.176;-0.708;2023-03-18T12:44:08;100120.84;;;16.15;55.69
55517;BME280;41724;51.176;-0.708;2023-03-18T12:46:43;100123.30;;;16.70;54.72
55517;BME280;41724;51.176;-0.708;2023-03-18T12:49:17;100120.04;;;17.78;53.78
55517;BME280;41724;51.176;-0.708;2023-03-18T12:51:50;100117.78;;;17.76;54.66
55517;BME280;41724;51.176;-0.708;2023-03-18T12:54:27;100118.45;;;17.74;52.08
55517;BME280;41724;51.176;-0.708;2023-03-18T12:57:00;100112.25;;;17.94;52.83
55517;BME280;41724;51.176;-0.708;2023-03-18T12:59:32;100113.38;;;18.59;53.05